Date,TemperatureHighF,TemperatureAvgF,TemperatureLowF,DewpointHighF,DewpointAvgF,DewpointLowF,HumidityHigh,HumidityAvg,HumidityLow,PressureMaxIn,PressureMinIn,WindSpeedMaxMPH,WindSpeedAvgMPH,GustSpeedMaxMPH,PrecipitationSumIn
2013-3-1,44,41,36,28,25,22,61,54,43,29.83,29.66,15,7,25,0.00
2013-3-2,38,34,30,22,19,17,63,54,43,29.84,29.76,15,7,23,0.00
2013-3-3,45,35,29,20,16,13,65,48,28,29.85,29.74,17,8,29,0.00
2013-3-4,48,36,28,15,13,10,56,40,25,29.98,29.85,20,8,30,0.00
2013-3-5,58,42,32,29,16,6,70,38,14,30.02,29.75,9,3,17,0.00
2013-3-6,39,36,33,34,32,29,93,88,71,29.93,29.53,24,9,38,1.03
2013-3-7,51,42,36,30,26,23,72,56,35,30.09,29.93,21,8,31,0.00
2013-3-8,54,43,36,27,25,22,66,49,32,30.20,30.07,21,10,32,0.00
2013-3-9,72,51,35,26,22,18,60,36,14,30.29,30.18,14,3,20,0.00
2013-3-10,64,51,39,34,22,11,64,34,13,30.27,30.15,10,3,15,0.00
2013-3-11,61,52,43,48,43,35,90,73,58,30.18,29.88,12,4,18,0.00
2013-3-12,61,54,42,55,45,28,94,71,45,29.90,29.62,17,7,26,0.69
2013-3-13,52,43,35,28,23,15,67,47,24,30.01,29.83,21,7,31,0.00
2013-3-14,50,39,32,17,13,10,51,36,21,30.07,29.97,22,9,35,0.00
2013-3-15,38,35,33,18,17,15,52,46,39,30.04,30.00,6,4,12,0.00
2013-3-16,61,50,42,47,35,14,70,55,26,29.90,29.57,13,3,18,0.00
2013-3-17,42,39,36,33,29,24,77,66,51,30.22,29.84,8,2,14,0.00
2013-3-18,39,36,32,36,29,19,93,76,48,30.28,29.83,9,2,14,0.34
2013-3-19,60,46,37,40,28,2,93,60,12,29.85,29.66,23,5,40,0.00
2013-3-20,54,46,37,20,9,4,39,22,16,29.94,29.71,24,8,35,0.00
2013-3-21,43,35,29,26,12,3,73,40,25,29.85,29.71,17,8,28,0.00
2013-3-22,52,38,27,17,12,6,50,36,22,29.94,29.83,21,6,29,0.00
2013-3-23,59,45,32,20,18,16,55,35,20,29.98,29.85,13,5,21,0.00
2013-3-24,44,39,34,32,22,17,90,52,36,29.94,29.60,8,2,15,0.05
2013-3-25,38,36,33,34,32,30,92,89,83,29.64,29.46,8,2,13,0.58
2013-3-26,52,42,34,34,29,23,92,64,34,29.92,29.64,16,6,25,0.01
2013-3-27,52,44,37,27,25,21,64,49,31,30.06,29.92,20,9,31,0.00
2013-3-28,48,43,38,29,26,24,62,51,39,30.17,30.03,16,7,28,0.00
2013-3-29,61,50,40,29,26,21,61,42,24,30.20,30.09,13,5,22,0.00
2013-3-30,68,53,42,29,23,17,57,33,15,30.17,30.06,12,2,18,0.00
2013-3-31,54,49,44,49,39,26,92,69,41,30.07,29.69,13,3,22,0.01